Time;durP1;ratioP1;P1;durP2;ratioP2;P2;SDS_P1;SDS_P2;PMS_P1;PMS_P2;Temp;Humidity;BMP_temperature;BMP_pressure;BME280_temperature;BME280_humidity;BME280_pressure;Samples;Min_cycle;Max_cycle;Signal;HPM_P1;HPM_P2
2023/06/22 00:02:18;;;;;;;;;8.00;8.00;;;;;24.95;51.58;101154.63;6117993;23;45257;-64
2023/06/22 00:04:43;;;;;;;;;3.00;3.00;;;;;24.89;51.42;101152.06;6117956;23;45351;-64
2023/06/22 00:07:09;;;;;;;;;6.33;4.00;;;;;24.84;51.63;101153.06;6116967;23;45176;-63
2023/06/22 00:09:34;;;;;;;;;7.00;4.00;;;;;24.79;51.69;101143.19;6117631;23;45369;-63
2023/06/22 00:12:01;;;;;;;;;4.00;4.00;;;;;24.78;51.54;101150.50;6118356;23;45585;-64
2023/06/22 00:14:29;;;;;;;;;6.67;5.33;;;;;24.69;51.18;101138.91;6118924;23;45189;-64
2023/06/22 00:16:56;;;;;;;;;5.33;5.00;;;;;24.82;51.36;101157.69;6117499;23;45451;-63
2023/06/22 00:19:22;;;;;;;;;9.00;7.00;;;;;24.83;51.41;101156.75;6118100;23;45411;-64
2023/06/22 00:21:52;;;;;;;;;6.00;6.00;;;;;24.77;51.44;101142.34;6119126;23;45482;-64
2023/06/22 00:24:20;;;;;;;;;5.33;5.33;;;;;24.78;51.21;101141.38;6117600;23;45628;-65
2023/06/22 00:26:48;;;;;;;;;7.00;5.33;;;;;24.85;51.05;101145.78;6116863;23;45345;-64
2023/06/22 00:29:14;;;;;;;;;5.33;4.67;;;;;24.78;51.21;101131.38;6115486;23;45322;-63
2023/06/22 00:31:39;;;;;;;;;5.67;4.33;;;;;24.75;51.06;101130.53;6117631;23;45493;-64
2023/06/22 00:34:06;;;;;;;;;8.33;4.00;;;;;24.75;51.41;101122.34;6117262;23;45288;-64
2023/06/22 00:36:32;;;;;;;;;4.67;4.67;;;;;24.73;51.41;101119.69;6117229;23;45700;-64
2023/06/22 00:38:57;;;;;;;;;4.33;2.67;;;;;24.67;51.61;101122.56;6120486;23;45344;-63
2023/06/22 00:41:24;;;;;;;;;4.00;4.00;;;;;24.59;51.51;101111.81;6117944;23;45698;-65
2023/06/22 00:43:49;;;;;;;;;8.00;5.00;;;;;24.49;51.29;101101.16;6118217;23;45505;-64
2023/06/22 00:46:15;;;;;;;;;3.00;3.00;;;;;24.59;51.54;101133.69;6117786;23;45248;-64
2023/06/22 00:48:43;;;;;;;;;6.00;5.33;;;;;24.53;51.45;101114.69;6118563;23;45532;-64
2023/06/22 00:51:10;;;;;;;;;6.00;4.00;;;;;24.50;51.93;101108.41;6118722;23;45331;-64
2023/06/22 00:53:36;;;;;;;;;5.00;5.00;;;;;24.43;51.81;101104.94;6068909;23;1178574;-65
2023/06/22 00:56:03;;;;;;;;;7.33;7.33;;;;;24.28;51.60;101081.63;6117547;23;45186;-64
2023/06/22 00:58:29;;;;;;;;;8.33;7.67;;;;;24.43;51.69;101104.94;6119474;23;45402;-65
2023/06/22 01:00:54;;;;;;;;;7.67;6.67;;;;;24.42;51.32;101117.69;6118812;23;45648;-65
2023/06/22 01:03:20;;;;;;;;;9.00;8.00;;;;;24.40;51.80;101113.19;6120068;23;46023;-65
2023/06/22 01:05:46;;;;;;;;;8.33;6.33;;;;;24.40;51.77;101107.72;6117291;23;45345;-65
2023/06/22 01:08:45;;;;;;;;;5.00;5.00;;;;;24.35;51.55;101105.13;6119977;23;45348;-64
2023/06/22 01:11:20;;;;;;;;;3.00;3.00;;;;;24.33;51.54;101103.38;6119304;23;45379;-63
2023/06/22 01:13:56;;;;;;;;;6.00;4.67;;;;;24.27;51.56;101102.59;6119007;23;45483;-64
2023/06/22 01:16:33;;;;;;;;;6.67;5.33;;;;;24.28;51.41;101098.91;6119638;23;45391;-64
2023/06/22 01:19:07;;;;;;;;;7.00;7.00;;;;;24.21;51.54;101074.56;6119576;23;45391;-64
2023/06/22 01:21:32;;;;;;;;;5.00;5.00;;;;;24.27;51.44;101085.31;6119980;23;45187;-62
2023/06/22 01:24:22;;;;;;;;;12.67;7.33;;;;;24.25;51.68;101082.63;6119726;23;45461;-62
2023/06/22 01:27:21;;;;;;;;;5.00;5.00;;;;;24.23;51.48;101076.28;6118637;23;45322;-64
2023/06/22 01:29:51;;;;;;;;;4.00;4.00;;;;;24.23;51.79;101083.59;6119892;23;45314;-64
2023/06/22 01:32:17;;;;;;;;;4.33;4.33;;;;;24.18;51.40;101075.50;6118547;23;45310;-65
2023/06/22 01:34:43;;;;;;;;;5.00;4.67;;;;;24.18;51.47;101080.09;6118652;23;45339;-63
2023/06/22 01:37:09;;;;;;;;;5.00;5.00;;;;;24.15;52.06;101066.50;6116796;23;45485;-63
2023/06/22 01:39:35;;;;;;;;;4.33;3.33;;;;;24.16;51.80;101071.03;6118401;23;45393;-63
2023/06/22 01:42:03;;;;;;;;;7.33;7.00;;;;;24.15;51.72;101058.31;6119507;23;45204;-64
2023/06/22 01:44:29;;;;;;;;;6.00;6.00;;;;;24.14;51.42;101060.16;6118834;23;45323;-64
2023/06/22 01:46:55;;;;;;;;;6.00;6.00;;;;;24.13;51.89;101058.34;6118818;23;45431;-63
2023/06/22 01:49:20;;;;;;;;;5.33;5.33;;;;;24.12;51.67;101059.28;6117370;23;45368;-64
2023/06/22 01:51:46;;;;;;;;;9.00;6.00;;;;;24.11;51.71;101057.50;6118419;23;45438;-64
2023/06/22 01:54:12;;;;;;;;;5.67;5.67;;;;;24.12;51.89;101055.66;6117855;23;45502;-64
2023/06/22 01:56:37;;;;;;;;;6.00;5.00;;;;;24.13;51.98;101057.47;6118135;23;45326;-63
2023/06/22 01:59:15;;;;;;;;;4.33;4.33;;;;;24.05;51.89;101035.81;6117890;23;45443;-64
2023/06/22 02:02:06;;;;;;;;;8.67;7.00;;;;;24.09;51.66;101043.00;6119322;23;45188;-62
2023/06/22 02:04:37;;;;;;;;;8.00;8.00;;;;;24.10;51.59;101045.69;6115827;23;47161;-63
2023/06/22 02:07:08;;;;;;;;;5.00;5.00;;;;;24.10;51.45;101042.03;6117991;23;45345;-63
2023/06/22 02:09:38;;;;;;;;;5.67;5.00;;;;;24.07;51.97;101039.38;6117979;23;45383;-63
2023/06/22 02:12:06;;;;;;;;;11.67;7.33;;;;;24.02;51.45;101031.34;6116815;23;45259;-63
2023/06/22 02:14:34;;;;;;;;;7.67;5.33;;;;;24.06;51.57;101046.69;6119068;23;45925;-63
2023/06/22 02:16:59;;;;;;;;;5.67;4.00;;;;;24.06;51.77;101048.53;6118184;23;45297;-62
2023/06/22 02:19:25;;;;;;;;;6.00;4.67;;;;;24.03;51.94;101046.75;6114932;23;45315;-64
2023/06/22 02:21:51;;;;;;;;;5.33;5.33;;;;;24.02;52.21;101041.34;6119503;23;45321;-64
2023/06/22 02:24:16;;;;;;;;;6.33;5.00;;;;;24.01;51.51;101045.91;6118739;23;45280;-63
2023/06/22 02:26:44;;;;;;;;;6.67;5.33;;;;;23.94;52.00;101032.44;6118932;23;45366;-62
2023/06/22 02:29:09;;;;;;;;;3.00;3.00;;;;;24.00;51.67;101044.09;6122104;23;45323;-64
2023/06/22 02:31:35;;;;;;;;;6.00;6.00;;;;;23.96;51.83;101041.50;6117641;23;45262;-62
2023/06/22 02:34:00;;;;;;;;;5.00;4.00;;;;;23.96;51.43;101034.22;6119122;23;45353;-63
2023/06/22 02:36:27;;;;;;;;;6.67;4.67;;;;;23.63;51.59;100984.06;6118382;23;45402;-63
2023/06/22 02:38:54;;;;;;;;;4.00;4.00;;;;;23.93;51.84;101031.56;6118461;23;45430;-63
2023/06/22 02:41:19;;;;;;;;;7.33;5.33;;;;;23.88;51.74;101022.59;6118516;23;45391;-64
2023/06/22 02:43:47;;;;;;;;;4.33;4.33;;;;;23.84;51.49;101012.66;6118766;23;45389;-63
2023/06/22 02:46:13;;;;;;;;;5.67;4.33;;;;;23.86;51.57;101024.47;6118640;23;45422;-63
2023/06/22 02:48:40;;;;;;;;;5.67;3.00;;;;;23.88;51.44;101023.47;6118319;23;45307;-64
2023/06/22 02:51:05;;;;;;;;;5.00;5.00;;;;;23.78;51.68;101016.41;6117366;23;45223;-64
2023/06/22 02:53:32;;;;;;;;;8.33;4.00;;;;;23.85;51.63;101031.72;6118456;23;45995;-62
2023/06/22 02:55:57;;;;;;;;;5.33;4.00;;;;;23.83;51.77;101040.91;6116324;23;45505;-63
2023/06/22 02:58:24;;;;;;;;;4.33;4.33;;;;;23.73;51.78;101023.81;6118511;23;45290;-64
2023/06/22 03:00:52;;;;;;;;;3.67;3.67;;;;;23.71;51.75;101026.59;6119622;23;45305;-64
2023/06/22 03:03:18;;;;;;;;;8.00;5.00;;;;;23.82;51.51;101044.53;6117956;23;45352;-64
2023/06/22 03:05:43;;;;;;;;;4.00;4.00;;;;;23.78;51.72;101042.81;6118908;23;45323;-65
2023/06/22 03:08:09;;;;;;;;;4.67;4.33;;;;;23.80;51.52;101038.22;6118795;23;45298;-64
2023/06/22 03:10:34;;;;;;;;;5.67;5.00;;;;;23.77;51.78;101028.25;6119907;23;45240;-63
2023/06/22 03:13:00;;;;;;;;;4.67;4.67;;;;;23.80;51.64;101025.47;6120733;23;46125;-64
2023/06/22 03:15:25;;;;;;;;;3.00;3.00;;;;;23.65;51.16;100987.66;6120918;23;45406;-64
2023/06/22 03:17:51;;;;;;;;;13.67;13.67;;;;;23.64;51.82;100981.31;6118328;23;45412;-64
2023/06/22 03:20:16;;;;;;;;;6.00;5.33;;;;;23.69;51.78;100987.53;6118458;23;45249;-64
2023/06/22 03:22:43;;;;;;;;;7.00;5.00;;;;;23.73;51.42;100985.63;6117659;23;46298;-62
2023/06/22 03:25:10;;;;;;;;;5.00;3.67;;;;;23.75;51.71;100989.22;6120204;23;45435;-64
2023/06/22 03:27:37;;;;;;;;;3.00;3.00;;;;;23.73;51.63;100988.34;6119810;23;45375;-63
2023/06/22 03:30:03;;;;;;;;;6.67;3.67;;;;;23.63;51.71;100968.59;6120794;23;45422;-64
2023/06/22 03:32:28;;;;;;;;;3.00;3.00;;;;;23.70;51.61;100988.44;6119892;23;46316;-66
2023/06/22 03:34:54;;;;;;;;;7.00;5.00;;;;;23.73;51.46;100996.53;6118152;23;45893;-63
2023/06/22 03:37:19;;;;;;;;;6.00;5.00;;;;;23.73;51.53;100999.28;6119816;23;45462;-63
2023/06/22 03:39:44;;;;;;;;;7.67;5.00;;;;;23.70;51.50;100983.84;6121699;23;45215;-63
2023/06/22 03:42:10;;;;;;;;;4.33;4.33;;;;;23.72;51.87;100983.81;6120126;23;46061;-64
2023/06/22 03:44:36;;;;;;;;;7.67;6.67;;;;;23.67;51.59;100975.75;6120185;23;45362;-64
2023/06/22 03:47:02;;;;;;;;;4.00;4.00;;;;;23.72;52.27;100992.00;6121034;23;45378;-63
2023/06/22 03:49:28;;;;;;;;;5.00;5.00;;;;;23.73;52.08;100989.25;6119290;23;45210;-63
2023/06/22 03:51:53;;;;;;;;;5.33;3.00;;;;;23.62;52.06;100968.63;6119460;23;46312;-64
2023/06/22 03:54:18;;;;;;;;;5.00;5.00;;;;;23.72;51.75;100990.16;6118567;23;45359;-63
2023/06/22 03:56:44;;;;;;;;;5.00;5.00;;;;;23.72;52.15;100989.28;6120084;23;45240;-63
2023/06/22 03:59:09;;;;;;;;;6.33;5.00;;;;;23.73;52.02;100988.34;6120554;23;45459;-64
2023/06/22 04:01:35;;;;;;;;;5.67;5.67;;;;;23.69;51.78;100979.34;6119604;23;46187;-63
2023/06/22 04:04:00;;;;;;;;;5.00;5.00;;;;;23.71;52.08;100990.22;6120758;23;45198;-63
2023/06/22 04:06:26;;;;;;;;;4.00;4.00;;;;;23.70;51.83;100981.13;6120053;23;46048;-65
2023/06/22 04:08:51;;;;;;;;;3.00;3.00;;;;;23.66;51.78;100995.78;6121089;23;45297;-62
2023/06/22 04:11:18;;;;;;;;;6.00;4.00;;;;;23.63;52.14;100981.34;6119865;23;45475;-63
2023/06/22 04:13:44;;;;;;;;;6.00;5.00;;;;;23.56;52.14;100977.84;6121294;23;45233;-63
2023/06/22 04:16:09;;;;;;;;;4.00;4.00;;;;;23.65;51.72;100995.81;6118626;23;45345;-64
2023/06/22 04:18:36;;;;;;;;;5.00;3.00;;;;;23.65;51.87;100995.81;6122012;23;45382;-63
2023/06/22 04:21:02;;;;;;;;;10.00;5.00;;;;;23.63;52.27;100997.69;6119332;23;48014;-63
2023/06/22 04:23:28;;;;;;;;;5.33;5.33;;;;;23.61;52.03;100995.00;6120476;23;45309;-63
2023/06/22 04:25:53;;;;;;;;;6.67;5.33;;;;;23.59;52.34;100994.13;6119636;23;45347;-64
2023/06/22 04:28:19;;;;;;;;;4.67;3.67;;;;;23.63;52.37;100994.97;6119932;23;45296;-63
2023/06/22 04:30:47;;;;;;;;;4.00;4.00;;;;;23.58;52.79;100994.16;6118317;23;47018;-63
2023/06/22 04:33:16;;;;;;;;;6.67;4.67;;;;;23.55;53.44;101000.59;6120074;23;45579;-63
2023/06/22 04:35:44;;;;;;;;;5.67;5.67;;;;;23.48;53.60;100983.50;6118050;23;45349;-64
2023/06/22 04:38:10;;;;;;;;;7.00;5.33;;;;;23.60;54.09;100995.03;6118835;23;45305;-63
2023/06/22 04:40:35;;;;;;;;;5.67;5.67;;;;;23.62;53.90;101007.69;6117881;23;47367;-64
2023/06/22 04:43:02;;;;;;;;;5.00;5.00;;;;;23.57;54.20;100986.94;6120044;23;45197;-63
2023/06/22 04:45:29;;;;;;;;;7.00;6.67;;;;;23.61;53.96;101002.28;6119311;23;45361;-63
2023/06/22 04:47:54;;;;;;;;;10.33;8.33;;;;;23.59;54.36;100999.56;6119619;23;45415;-64
2023/06/22 04:50:21;;;;;;;;;6.00;6.00;;;;;23.51;55.31;100982.50;6118359;23;47036;-64
2023/06/22 04:52:47;;;;;;;;;7.67;7.67;;;;;23.52;55.75;100987.03;6119873;23;45601;-65
2023/06/22 04:55:18;;;;;;;;;7.00;7.00;;;;;23.59;56.07;100998.69;6119933;23;45331;-63
2023/06/22 04:57:48;;;;;;;;;11.00;8.67;;;;;23.55;55.72;100998.75;6120243;23;45337;-63
2023/06/22 05:00:19;;;;;;;;;7.67;7.67;;;;;23.57;55.51;101001.44;6119835;23;46121;-62
2023/06/22 05:02:45;;;;;;;;;7.67;7.00;;;;;23.58;56.40;101000.53;6119725;23;45439;-62
2023/06/22 05:05:13;;;;;;;;;9.33;7.00;;;;;23.57;56.23;100993.28;6119917;23;45403;-63
2023/06/22 05:07:52;;;;;;;;;6.67;5.00;;;;;23.55;56.32;101000.59;6118576;23;45346;-63
2023/06/22 05:10:18;;;;;;;;;8.33;7.33;;;;;23.53;56.73;101003.38;6120592;23;45647;-64
2023/06/22 05:12:44;;;;;;;;;7.67;7.00;;;;;23.56;57.03;101010.59;6118862;23;45203;-64
2023/06/22 05:15:10;;;;;;;;;10.33;9.00;;;;;23.56;57.59;101013.31;6119729;23;45302;-64
2023/06/22 05:17:41;;;;;;;;;10.00;8.67;;;;;23.54;58.09;101006.97;6119750;23;45281;-64
2023/06/22 05:20:07;;;;;;;;;14.00;12.67;;;;;23.54;58.26;101007.91;6118661;23;46201;-63
2023/06/22 05:22:32;;;;;;;;;12.33;11.00;;;;;23.53;57.57;101006.09;6120285;23;45286;-63
2023/06/22 05:24:57;;;;;;;;;13.33;11.67;;;;;23.50;57.62;100997.97;6120312;23;45590;-65
2023/06/22 05:27:23;;;;;;;;;37.50;32.25;;;;;23.51;58.57;101002.50;6120642;23;45189;-64
2023/06/22 05:29:48;;;;;;;;;81.00;76.25;;;;;23.46;58.42;100996.28;6117222;23;46219;-64
2023/06/22 05:32:14;;;;;;;;;26.00;22.67;;;;;23.49;58.18;100992.56;6119237;23;45524;-63
2023/06/22 05:34:39;;;;;;;;;15.00;14.00;;;;;23.42;58.51;100977.28;6119234;23;45281;-63
2023/06/22 05:37:06;;;;;;;;;12.00;10.00;;;;;23.43;58.67;100977.25;6119965;23;45287;-64
2023/06/22 05:39:31;;;;;;;;;13.33;10.67;;;;;23.45;59.36;100979.94;6119167;23;46332;-63
2023/06/22 05:41:57;;;;;;;;;12.67;12.67;;;;;23.44;59.93;100976.28;6119177;23;45349;-65
2023/06/22 05:44:22;;;;;;;;;16.67;12.00;;;;;23.11;60.25;100927.06;6119845;23;45257;-66
2023/06/22 05:46:48;;;;;;;;;13.67;12.67;;;;;23.34;60.03;100978.34;6119631;23;45400;-64
2023/06/22 05:49:14;;;;;;;;;13.67;13.00;;;;;23.32;59.92;100974.75;6118294;23;47374;-63
2023/06/22 05:51:40;;;;;;;;;12.67;12.67;;;;;23.33;60.24;100981.13;6117338;23;46333;-64
2023/06/22 05:54:05;;;;;;;;;14.00;10.00;;;;;23.32;60.25;100982.94;6118882;23;45237;-64
2023/06/22 05:56:31;;;;;;;;;17.00;12.67;;;;;23.28;60.89;100983.03;6116963;23;45453;-65
2023/06/22 05:58:57;;;;;;;;;13.67;13.67;;;;;23.26;61.51;100988.50;6118903;23;46062;-63
2023/06/22 06:01:22;;;;;;;;;15.67;15.00;;;;;23.18;60.61;100974.16;6117944;23;45211;-64
2023/06/22 06:03:49;;;;;;;;;16.67;15.33;;;;;23.13;60.96;100968.84;6117974;23;45441;-65
2023/06/22 06:06:15;;;;;;;;;15.00;13.67;;;;;23.26;61.17;100987.63;6117603;23;45180;-64
2023/06/22 06:08:41;;;;;;;;;14.33;14.00;;;;;23.15;60.97;100977.88;6129135;23;45838;-64
2023/06/22 06:11:06;;;;;;;;;18.00;14.33;;;;;23.08;61.22;100959.88;6131293;23;44927;-63
2023/06/22 06:13:32;;;;;;;;;18.00;15.67;;;;;22.95;62.08;100948.31;6130745;23;45087;-64
2023/06/22 06:15:59;;;;;;;;;26.00;24.75;;;;;23.05;62.14;100972.59;6131514;23;45108;-63
2023/06/22 06:18:24;;;;;;;;;22.67;19.67;;;;;22.94;61.39;100953.78;6130341;23;45557;-64
2023/06/22 06:20:50;;;;;;;;;22.33;17.67;;;;;23.11;61.71;100988.88;6124730;23;45399;-63
2023/06/22 06:23:15;;;;;;;;;21.00;16.67;;;;;23.09;62.02;100982.56;6164318;23;45465;-76
2023/06/22 06:25:41;;;;;;;;;17.33;17.00;;;;;23.04;61.89;100990.78;6182878;23;45384;-75
2023/06/22 06:28:06;;;;;;;;;26.67;19.33;;;;;22.92;62.13;100975.59;6160440;23;46965;-76
2023/06/22 06:30:32;;;;;;;;;17.00;16.00;;;;;22.99;62.66;100981.81;6189654;23;44962;-75
2023/06/22 06:32:57;;;;;;;;;16.67;16.00;;;;;22.93;62.79;100987.41;6182846;23;45525;-74
2023/06/22 06:35:23;;;;;;;;;22.33;17.67;;;;;22.93;62.68;100990.13;6183658;23;45470;-72
2023/06/22 06:37:50;;;;;;;;;31.25;29.00;;;;;22.93;63.04;100999.22;6182909;23;45811;-73
2023/06/22 06:40:17;;;;;;;;;29.33;19.00;;;;;22.76;63.31;100971.41;6178814;23;45325;-75
2023/06/22 06:42:47;;;;;;;;;34.50;31.00;;;;;22.94;63.38;101005.56;6152699;23;45187;-76
2023/06/22 06:45:18;;;;;;;;;28.25;24.75;;;;;22.94;63.76;101001.00;6180664;23;45325;-74
2023/06/22 06:47:44;;;;;;;;;25.00;22.00;;;;;22.93;64.10;100999.22;6179385;23;45410;-74
2023/06/22 06:50:10;;;;;;;;;24.67;20.00;;;;;22.91;64.46;100986.53;6153906;23;45399;-74
2023/06/22 06:52:36;;;;;;;;;27.25;24.25;;;;;22.88;64.25;100983.88;6181670;23;45475;-72
2023/06/22 06:55:04;;;;;;;;;32.00;27.50;;;;;22.81;64.41;100966.75;6180530;23;45454;-74
2023/06/22 06:57:30;;;;;;;;;23.00;18.67;;;;;22.79;64.80;100960.44;6181526;23;45440;-75
2023/06/22 06:59:56;;;;;;;;;35.00;31.00;;;;;22.86;64.83;100974.84;6181087;23;45289;-75
2023/06/22 07:02:22;;;;;;;;;30.33;21.00;;;;;22.88;64.92;100975.69;6181444;23;45200;-75
2023/06/22 07:04:48;;;;;;;;;24.33;20.33;;;;;22.84;65.21;100976.72;6181828;23;45342;-74
2023/06/22 07:07:14;;;;;;;;;22.67;19.67;;;;;22.82;64.99;100969.44;6181885;23;45280;-74
2023/06/22 07:09:39;;;;;;;;;26.00;23.67;;;;;22.84;65.57;100969.41;6181383;23;45965;-74
2023/06/22 07:12:05;;;;;;;;;22.67;19.00;;;;;22.70;65.45;100941.56;6153605;23;45304;-74
2023/06/22 07:14:31;;;;;;;;;19.33;19.33;;;;;22.76;65.47;100957.78;6182978;23;45594;-72
2023/06/22 07:16:58;;;;;;;;;26.67;24.00;;;;;22.80;65.41;100970.41;6180403;23;46353;-73
2023/06/22 07:19:30;;;;;;;;;21.33;19.00;;;;;22.79;65.40;100976.78;6180899;23;45289;-74
2023/06/22 07:21:55;;;;;;;;;21.00;18.00;;;;;22.75;65.92;100975.03;6181045;23;45428;-74
2023/06/22 07:24:21;;;;;;;;;26.25;26.00;;;;;22.67;65.79;100961.59;6154148;23;45347;-74
2023/06/22 07:26:49;;;;;;;;;20.67;18.33;;;;;22.52;65.57;100938.31;6177926;23;45722;-73
2023/06/22 07:29:19;;;;;;;;;21.00;16.33;;;;;22.58;65.54;100954.50;6153425;23;45444;-70
2023/06/22 07:31:45;;;;;;;;;21.67;16.67;;;;;22.59;65.85;100956.31;6154736;23;45527;-73
2023/06/22 07:34:13;;;;;;;;;20.00;18.33;;;;;22.68;65.83;100966.09;6182247;23;45305;-70
2023/06/22 07:36:44;;;;;;;;;24.00;22.67;;;;;22.48;65.95;100931.13;6180444;23;46712;-69
2023/06/22 07:39:10;;;;;;;;;23.00;21.67;;;;;22.52;65.61;100938.31;6153124;23;45472;-74
2023/06/22 07:41:39;;;;;;;;;27.33;23.33;;;;;22.52;65.81;100940.09;6182603;23;45317;-73
2023/06/22 07:44:06;;;;;;;;;18.33;18.33;;;;;22.52;65.79;100941.03;6183565;23;45427;-75
2023/06/22 07:46:31;;;;;;;;;20.67;18.00;;;;;22.48;66.07;100933.84;6180665;23;45272;-73
2023/06/22 07:48:57;;;;;;;;;26.67;24.33;;;;;22.60;66.15;100951.75;6154721;23;45369;-75
2023/06/22 07:51:23;;;;;;;;;27.00;23.33;;;;;22.61;66.66;100964.44;6181716;23;45382;-73
2023/06/22 07:53:49;;;;;;;;;22.00;20.67;;;;;22.60;66.37;100960.84;6155578;23;45569;-71
2023/06/22 07:56:18;;;;;;;;;19.33;18.00;;;;;22.58;66.22;100959.94;6181901;23;45200;-74
2023/06/22 07:58:47;;;;;;;;;17.00;16.67;;;;;22.45;66.40;100944.78;6155605;23;45469;-74
2023/06/22 08:01:16;;;;;;;;;19.00;18.00;;;;;22.37;66.10;100941.31;6181907;23;45473;-77
2023/06/22 08:03:42;;;;;;;;;16.33;15.67;;;;;22.33;65.83;100937.75;6153140;23;45273;-75
2023/06/22 08:06:09;;;;;;;;;22.67;18.67;;;;;22.35;66.47;100945.91;6180626;23;45350;-74
2023/06/22 08:08:37;;;;;;;;;23.00;17.67;;;;;22.38;66.20;100960.34;6153010;23;45483;-72
2023/06/22 08:11:03;;;;;;;;;21.33;19.00;;;;;22.20;66.42;100931.59;6152296;23;45302;-75
2023/06/22 08:13:29;;;;;;;;;17.00;17.00;;;;;22.40;66.72;100969.38;6182592;23;45170;-74
2023/06/22 08:15:54;;;;;;;;;24.00;18.00;;;;;22.41;66.76;100978.47;6153960;23;45674;-73
2023/06/22 08:18:20;;;;;;;;;19.33;15.67;;;;;22.39;66.85;100963.94;6182534;23;45296;-74
2023/06/22 08:20:57;;;;;;;;;21.67;18.33;;;;;22.25;66.97;100943.31;6184287;23;45212;-75
2023/06/22 08:23:23;;;;;;;;;31.67;26.33;;;;;22.29;66.66;100929.66;6183287;23;45514;-74
2023/06/22 08:25:50;;;;;;;;;22.33;19.00;;;;;22.50;66.67;100970.09;6155028;23;45855;-75
2023/06/22 08:28:15;;;;;;;;;23.67;20.00;;;;;22.55;67.03;100981.78;6181315;23;45221;-75
2023/06/22 08:30:41;;;;;;;;;23.67;19.00;;;;;22.44;66.90;100953.91;6181504;23;45331;-72
2023/06/22 08:33:06;;;;;;;;;21.00;19.67;;;;;22.29;66.93;100926.94;6153735;23;45559;-75
2023/06/22 08:35:31;;;;;;;;;22.33;20.33;;;;;22.58;66.32;100987.19;6180770;23;45396;-72
2023/06/22 08:37:57;;;;;;;;;20.33;17.00;;;;;22.50;66.52;100974.66;6153910;23;46176;-74
2023/06/22 08:40:24;;;;;;;;;22.33;19.00;;;;;22.58;66.52;100981.72;6180920;23;45476;-76
2023/06/22 08:42:49;;;;;;;;;26.00;24.25;;;;;22.48;66.59;100971.06;6154668;23;45281;-74
2023/06/22 08:45:16;;;;;;;;;25.00;18.33;;;;;22.50;67.01;100974.66;6179988;23;45467;-74
2023/06/22 08:47:42;;;;;;;;;21.00;18.67;;;;;22.45;66.98;100980.19;6155934;23;45312;-74
2023/06/22 08:50:10;;;;;;;;;19.33;16.67;;;;;22.55;67.07;100986.34;6155531;23;45208;-75
2023/06/22 08:52:37;;;;;;;;;19.00;18.33;;;;;22.35;67.53;100951.34;6181414;23;45389;-76
2023/06/22 08:55:03;;;;;;;;;23.33;20.00;;;;;22.57;67.18;100985.41;6152694;23;46758;-76
2023/06/22 08:57:28;;;;;;;;;21.67;18.67;;;;;22.47;66.97;100961.09;6179441;23;45213;-76
2023/06/22 08:59:58;;;;;;;;;21.33;20.33;;;;;22.44;66.92;100960.22;6179770;23;45452;-75
2023/06/22 09:02:23;;;;;;;;;24.33;22.00;;;;;22.42;66.91;100958.44;6154390;23;45462;-75
2023/06/22 09:04:55;;;;;;;;;25.33;23.00;;;;;22.50;66.56;100961.91;6180883;23;45291;-74
2023/06/22 09:07:23;;;;;;;;;19.67;17.00;;;;;22.51;66.39;100971.00;6153901;23;45247;-75
2023/06/22 09:09:48;;;;;;;;;18.33;15.67;;;;;22.43;66.67;100943.91;6153557;23;45413;-74
2023/06/22 09:12:14;;;;;;;;;18.33;18.33;;;;;22.61;66.41;100970.78;6154623;23;45502;-75
2023/06/22 09:14:40;;;;;;;;;21.33;20.33;;;;;22.68;66.20;100968.84;6154404;23;46138;-70
2023/06/22 09:17:05;;;;;;;;;18.67;16.00;;;;;22.79;66.22;100980.41;6180516;23;45410;-75
2023/06/22 09:19:30;;;;;;;;;27.33;21.00;;;;;22.79;65.36;100991.31;6181116;23;45380;-75
2023/06/22 09:21:56;;;;;;;;;20.67;18.67;;;;;22.69;65.82;100977.91;6180114;23;45519;-74
2023/06/22 09:24:21;;;;;;;;;24.00;19.00;;;;;22.79;66.05;100993.16;6179897;23;45794;-75
2023/06/22 09:26:47;;;;;;;;;18.00;15.67;;;;;22.55;66.18;100940.06;6153541;23;45405;-75
2023/06/22 09:29:12;;;;;;;;;16.33;14.33;;;;;22.67;64.89;100964.34;6181086;23;45554;-73
2023/06/22 09:31:37;;;;;;;;;18.33;15.33;;;;;22.85;65.51;100975.75;6182191;23;45415;-77
2023/06/22 09:34:03;;;;;;;;;17.67;16.33;;;;;22.95;64.50;100989.16;6181016;23;45571;-76
2023/06/22 09:36:28;;;;;;;;;15.00;15.00;;;;;22.93;64.88;100977.41;6153118;23;45269;-76
2023/06/22 09:38:58;;;;;;;;;18.33;18.33;;;;;22.83;64.21;100964.88;6153358;23;45244;-76
2023/06/22 09:41:24;;;;;;;;;18.33;16.00;;;;;23.00;64.30;100991.81;6181681;23;45580;-76
2023/06/22 09:43:53;;;;;;;;;19.67;15.00;;;;;23.12;64.18;101004.31;6179784;23;48292;-76
2023/06/22 09:46:21;;;;;;;;;12.67;12.67;;;;;23.12;64.00;101004.31;6180798;23;45504;-74
2023/06/22 09:48:46;;;;;;;;;15.67;15.67;;;;;23.05;63.37;100997.13;6182411;23;45335;-73
2023/06/22 09:51:11;;;;;;;;;19.00;17.33;;;;;23.09;64.24;101018.00;6178980;23;45438;-70
2023/06/22 09:53:38;;;;;;;;;24.33;18.33;;;;;23.10;64.07;101017.03;6179110;23;45941;-74
2023/06/22 09:56:03;;;;;;;;;19.00;16.33;;;;;23.06;64.25;101012.56;6179598;23;45514;-72
2023/06/22 09:58:29;;;;;;;;;16.33;15.00;;;;;23.16;63.43;101028.75;6180993;23;45623;-76
2023/06/22 10:00:54;;;;;;;;;16.67;14.33;;;;;22.97;64.00;100987.31;6180534;23;45491;-76
2023/06/22 10:03:20;;;;;;;;;21.33;19.33;;;;;23.11;64.43;101002.50;6179707;23;45996;-75
2023/06/22 10:05:46;;;;;;;;;19.33;16.00;;;;;23.28;63.55;101011.22;6180460;23;45434;-75
2023/06/22 10:08:12;;;;;;;;;17.00;15.33;;;;;22.75;63.38;100929.66;6180114;23;45241;-75
2023/06/22 10:10:37;;;;;;;;;25.67;22.67;;;;;23.22;63.22;101011.34;6180352;23;45197;-76
2023/06/22 10:13:09;;;;;;;;;16.00;15.33;;;;;23.27;62.68;101014.84;6179124;23;46203;-75
2023/06/22 10:15:35;;;;;;;;;19.67;17.00;;;;;23.33;62.74;101005.66;6180053;23;45312;-75
2023/06/22 10:18:00;;;;;;;;;16.00;16.00;;;;;23.50;62.70;101018.91;6180506;23;45893;-76
2023/06/22 10:20:26;;;;;;;;;10.00;10.00;;;;;23.67;62.41;101029.41;6179948;23;45296;-76
2023/06/22 10:22:51;;;;;;;;;15.67;14.67;;;;;23.83;62.63;101027.25;6180515;23;45798;-74
2023/06/22 10:25:17;;;;;;;;;19.00;19.00;;;;;23.87;62.82;101032.63;6153651;23;45437;-75
2023/06/22 10:27:42;;;;;;;;;15.33;15.33;;;;;23.86;61.69;101016.28;6152861;23;45247;-75
2023/06/22 10:30:12;;;;;;;;;17.33;15.33;;;;;24.03;61.75;101035.84;6182206;23;45265;-76
2023/06/22 10:32:38;;;;;;;;;14.33;13.00;;;;;24.02;60.21;101019.50;6184111;23;46105;-75
2023/06/22 10:35:05;;;;;;;;;12.67;12.67;;;;;24.20;60.31;101035.41;6182621;23;45227;-74
2023/06/22 10:37:30;;;;;;;;;14.67;11.33;;;;;24.28;60.13;101044.28;6154194;23;45445;-70
2023/06/22 10:39:56;;;;;;;;;9.67;9.67;;;;;24.36;59.27;101048.69;6182398;23;45407;-72
2023/06/22 10:42:22;;;;;;;;;9.00;7.33;;;;;24.45;60.09;101049.34;6154310;23;45980;-70
2023/06/22 10:44:47;;;;;;;;;15.00;13.67;;;;;24.43;60.20;101021.16;6179998;23;45240;-73
2023/06/22 10:47:13;;;;;;;;;13.67;11.33;;;;;24.68;60.30;101041.47;6178073;23;45469;-75
2023/06/22 10:49:38;;;;;;;;;16.00;14.00;;;;;24.84;58.29;101053.78;6154481;23;45478;-75
2023/06/22 10:52:08;;;;;;;;;19.00;17.33;;;;;24.92;57.94;101057.19;6181698;23;46180;-69
2023/06/22 10:54:35;;;;;;;;;16.33;13.67;;;;;25.00;57.96;101060.59;6181493;23;45311;-74
2023/06/22 10:57:01;;;;;;;;;13.00;13.00;;;;;24.90;57.43;101037.22;6182110;23;45410;-74
2023/06/22 10:59:28;;;;;;;;;9.67;9.00;;;;;25.07;57.04;101058.59;6181653;23;45239;-73
2023/06/22 11:01:54;;;;;;;;;12.00;10.33;;;;;25.27;55.91;101081.75;6153483;23;48116;-75
2023/06/22 11:04:21;;;;;;;;;15.67;10.67;;;;;25.32;56.08;101085.25;6180487;23;45198;-71
2023/06/22 11:06:48;;;;;;;;;11.00;11.00;;;;;25.37;54.47;101094.22;6155060;23;45545;-74
2023/06/22 11:09:18;;;;;;;;;17.00;15.67;;;;;25.37;55.48;101077.81;6181728;23;45413;-73
2023/06/22 11:11:44;;;;;;;;;14.00;12.33;;;;;25.58;54.98;101086.31;6154414;23;48514;-75
2023/06/22 11:14:10;;;;;;;;;13.67;12.33;;;;;25.66;55.22;101085.13;6182804;23;45219;-75
2023/06/22 11:16:36;;;;;;;;;16.50;14.50;;;;;25.78;54.88;101097.53;6182507;23;45276;-76